Terminal Aerodrome Forecast
Issued by NWS

Home | Current Version | Previous Version | Text Only | Print | Product List | Glossary On
Versions: 1 2 3 4 5 6 7 8 9 10 11 12 13 14 15 16
879
FTUS46 KMTR 201128
TAFSTS
TAF
KSTS 201128Z 2012/2112 VRB03KT P6SM BKN030
      TEMPO 2012/2016 OVC022
     FM201700 27007KT P6SM SCT028 SCT100
     FM201900 27014KT P6SM FEW030 BKN100
     FM210400 30008KT P6SM FEW250
     FM211000 32006KT P6SM FEW250=

USA.gov is the U.S. government's official web portal to all federal, state and local government web resources and services.